Time;durP1;ratioP1;P1;durP2;ratioP2;P2;SDS_P1;SDS_P2;PMS_P1;PMS_P2;Temp;Humidity;BMP_temperature;BMP_pressure;BME280_temperature;BME280_humidity;BME280_pressure;Samples;Min_cycle;Max_cycle;Signal;HPM_P1;HPM_P2
2021/09/12 00:02:05;;;;;;;11.03;7.53;;;14.00;99.90;;;;;;4983842;28;20169;-83
2021/09/12 00:04:31;;;;;;;8.37;6.60;;;13.90;99.90;;;;;;4982571;28;20528;-83
2021/09/12 00:06:57;;;;;;;9.87;7.57;;;;;;;;;;4982333;28;20642;-83
2021/09/12 00:09:23;;;;;;;9.70;7.63;;;13.90;99.90;;;;;;4982106;28;20218;-83
2021/09/12 00:11:49;;;;;;;9.03;7.70;;;13.90;99.90;;;;;;4982038;28;20667;-83
2021/09/12 00:14:15;;;;;;;10.47;7.20;;;13.90;99.90;;;;;;4982149;28;20211;-83
2021/09/12 00:16:40;;;;;;;8.80;6.93;;;13.90;99.90;;;;;;4981842;28;20192;-83
2021/09/12 00:19:06;;;;;;;10.20;7.23;;;13.90;99.90;;;;;;4982392;28;20634;-83
2021/09/12 00:21:32;;;;;;;8.73;7.07;;;13.90;99.90;;;;;;4983572;28;20219;-83
2021/09/12 00:23:57;;;;;;;8.17;6.97;;;13.90;99.90;;;;;;4983961;28;20238;-83
2021/09/12 00:26:23;;;;;;;8.07;7.27;;;13.90;99.90;;;;;;4983320;28;20634;-83
2021/09/12 00:28:49;;;;;;;8.23;7.20;;;13.90;99.90;;;;;;4982057;28;20187;-83
2021/09/12 00:31:14;;;;;;;9.30;7.00;;;13.90;99.90;;;;;;4982290;28;20258;-83
2021/09/12 00:33:40;;;;;;;8.37;7.47;;;13.80;99.90;;;;;;4982300;28;20251;-83
2021/09/12 00:36:06;;;;;;;8.07;6.93;;;13.80;99.90;;;;;;4982169;28;20192;-83
2021/09/12 00:38:31;;;;;;;8.20;7.27;;;13.80;99.90;;;;;;4983873;28;20176;-83
2021/09/12 00:40:58;;;;;;;9.07;7.07;;;13.70;99.90;;;;;;4983806;28;20192;-83
2021/09/12 00:43:25;;;;;;;7.93;6.90;;;13.70;99.90;;;;;;4983816;28;20192;-83
2021/09/12 00:45:52;;;;;;;8.40;7.13;;;13.70;99.90;;;;;;4983540;28;20180;-84
2021/09/12 00:48:18;;;;;;;8.60;7.13;;;13.70;99.90;;;;;;4984271;28;20180;-83
2021/09/12 00:50:44;;;;;;;9.40;6.80;;;13.70;99.90;;;;;;4982909;28;20204;-83
2021/09/12 00:53:11;;;;;;;13.20;7.37;;;13.70;99.90;;;;;;4992092;28;20176;-82
2021/09/12 00:55:38;;;;;;;10.07;7.57;;;13.70;99.90;;;;;;4993962;28;20280;-81
2021/09/12 00:58:05;;;;;;;8.77;7.70;;;13.60;99.90;;;;;;4980953;28;20188;-82
2021/09/12 01:00:30;;;;;;;13.13;8.77;;;13.70;99.90;;;;;;4979256;28;20201;-81
2021/09/12 01:03:01;;;;;;;9.17;7.27;;;13.60;99.90;;;;;;4982115;28;20180;-82
2021/09/12 01:05:28;;;;;;;8.43;6.73;;;13.60;99.90;;;;;;4982063;28;20586;-83
2021/09/12 01:07:54;;;;;;;8.17;6.77;;;13.60;99.90;;;;;;4981127;28;20184;-83
2021/09/12 01:10:19;;;;;;;9.30;7.50;;;13.60;99.90;;;;;;4983483;28;20726;-83
2021/09/12 01:12:46;;;;;;;8.30;6.63;;;13.50;99.90;;;;;;4982210;28;20305;-83
2021/09/12 01:15:11;;;;;;;7.67;6.80;;;13.50;99.90;;;;;;4982179;28;20207;-83
2021/09/12 01:17:37;;;;;;;9.20;7.10;;;13.40;99.90;;;;;;4982826;28;20180;-83
2021/09/12 01:20:03;;;;;;;9.57;7.00;;;13.40;99.90;;;;;;4983591;28;20200;-83
2021/09/12 01:22:29;;;;;;;8.27;7.37;;;13.40;99.90;;;;;;4982144;28;20252;-83
2021/09/12 01:24:55;;;;;;;9.50;6.90;;;;;;;;;;4983313;28;20563;-83
2021/09/12 01:27:21;;;;;;;8.80;7.03;;;13.30;99.90;;;;;;4988238;28;20172;-83
2021/09/12 01:29:47;;;;;;;7.73;6.63;;;13.30;99.90;;;;;;4988232;28;20704;-82
2021/09/12 01:32:13;;;;;;;9.40;7.43;;;13.30;99.90;;;;;;4998253;28;20168;-82
2021/09/12 01:34:38;;;;;;;9.00;7.17;;;13.30;99.90;;;;;;4998526;28;20222;-83
2021/09/12 01:37:05;;;;;;;12.00;7.47;;;13.30;99.90;;;;;;4991303;28;20204;-83
2021/09/12 01:39:31;;;;;;;8.27;7.10;;;13.30;99.90;;;;;;4987805;28;20183;-82
2021/09/12 01:41:57;;;;;;;10.53;7.10;;;13.30;99.90;;;;;;4985667;28;20211;-83
2021/09/12 01:44:24;;;;;;;9.93;7.33;;;13.30;99.90;;;;;;4985291;28;20192;-83
2021/09/12 01:46:51;;;;;;;9.43;6.93;;;13.20;99.90;;;;;;4986049;28;20184;-83
2021/09/12 01:49:17;;;;;;;8.57;6.97;;;13.20;99.90;;;;;;4988660;28;20244;-83
2021/09/12 01:51:42;;;;;;;8.83;7.07;;;13.20;99.90;;;;;;4985597;28;20227;-82
2021/09/12 01:54:08;;;;;;;8.03;6.80;;;13.20;99.90;;;;;;4984919;28;20211;-83
2021/09/12 01:56:34;;;;;;;8.07;6.63;;;13.10;99.90;;;;;;4985017;28;20180;-83
2021/09/12 01:59:01;;;;;;;9.40;6.90;;;13.10;99.90;;;;;;4985293;28;20241;-83
2021/09/12 02:01:26;;;;;;;12.07;7.40;;;13.10;99.90;;;;;;4985099;28;20223;-83
2021/09/12 02:03:52;;;;;;;12.00;7.10;;;13.10;99.90;;;;;;4986378;28;20180;-82
2021/09/12 02:06:18;;;;;;;9.20;7.60;;;13.10;99.90;;;;;;4985750;28;20199;-83
2021/09/12 02:08:43;;;;;;;9.80;7.77;;;13.00;99.90;;;;;;4985618;28;20195;-83
2021/09/12 02:11:10;;;;;;;7.80;6.77;;;13.00;99.90;;;;;;4985039;28;20231;-82
2021/09/12 02:13:36;;;;;;;11.33;7.70;;;13.00;99.90;;;;;;4985370;28;20636;-83
2021/09/12 02:16:02;;;;;;;10.07;7.80;;;;;;;;;;4986961;28;20172;-82
2021/09/12 02:18:28;;;;;;;9.00;7.23;;;12.90;99.90;;;;;;4996478;28;20260;-82
2021/09/12 02:20:53;;;;;;;8.57;7.27;;;13.00;99.90;;;;;;4997642;28;20205;-82
2021/09/12 02:23:19;;;;;;;8.73;7.27;;;13.00;99.90;;;;;;4985272;28;20180;-82
2021/09/12 02:25:45;;;;;;;8.30;7.07;;;13.00;99.90;;;;;;4984134;28;20195;-82
2021/09/12 02:28:10;;;;;;;8.33;7.50;;;13.00;99.90;;;;;;4983395;28;20596;-82
2021/09/12 02:30:36;;;;;;;10.03;7.37;;;13.00;99.90;;;;;;4984419;28;20200;-82
2021/09/12 02:33:02;;;;;;;8.30;7.07;;;13.00;99.90;;;;;;4984712;28;20187;-83
2021/09/12 02:35:28;;;;;;;8.70;7.23;;;13.00;99.90;;;;;;4983111;28;20475;-82
2021/09/12 02:37:54;;;;;;;10.13;6.93;;;13.00;99.90;;;;;;4984126;28;20183;-82
2021/09/12 02:40:20;;;;;;;9.33;6.90;;;12.90;99.90;;;;;;4982961;28;20539;-82
2021/09/12 02:42:46;;;;;;;8.27;6.90;;;;;;;;;;4982687;28;20200;-82
2021/09/12 02:45:12;;;;;;;9.90;7.17;;;12.90;99.90;;;;;;4982807;28;20188;-82
2021/09/12 02:47:38;;;;;;;7.83;7.03;;;12.80;99.90;;;;;;4984042;28;20208;-82
2021/09/12 02:50:05;;;;;;;13.67;7.70;;;12.80;99.90;;;;;;4982632;28;20207;-82
2021/09/12 02:52:31;;;;;;;8.83;7.57;;;12.70;99.90;;;;;;4982979;28;20186;-83
2021/09/12 02:54:57;;;;;;;9.97;7.07;;;12.70;99.90;;;;;;4983365;28;20204;-83
2021/09/12 02:57:22;;;;;;;8.27;7.17;;;12.70;99.90;;;;;;4983587;28;20208;-82
2021/09/12 02:59:48;;;;;;;10.90;7.30;;;12.60;99.90;;;;;;4984888;28;20669;-83
2021/09/12 03:02:14;;;;;;;8.63;7.60;;;;;;;;;;4981771;28;20587;-82
2021/09/12 03:04:40;;;;;;;9.30;6.97;;;;;;;;;;4981223;28;20184;-82
2021/09/12 03:07:06;;;;;;;8.30;6.97;;;12.60;99.90;;;;;;4980515;28;20271;-82
2021/09/12 03:09:31;;;;;;;9.77;7.57;;;12.60;99.90;;;;;;4979165;28;20274;-82
2021/09/12 03:11:57;;;;;;;7.83;7.00;;;12.60;99.90;;;;;;4979753;28;20236;-82
2021/09/12 03:14:23;;;;;;;8.43;7.37;;;12.60;99.90;;;;;;4978416;28;20254;-82
2021/09/12 03:16:49;;;;;;;9.23;7.17;;;12.60;99.90;;;;;;4979010;28;20187;-82
2021/09/12 03:19:15;;;;;;;10.07;7.57;;;12.60;99.90;;;;;;4978856;28;20534;-82
2021/09/12 03:21:42;;;;;;;8.40;7.47;;;12.60;99.90;;;;;;4990736;28;20260;-82
2021/09/12 03:24:07;;;;;;;8.87;7.33;;;12.50;99.90;;;;;;4995826;28;20257;-81
2021/09/12 03:26:33;;;;;;;12.83;7.40;;;12.50;99.90;;;;;;4990722;28;20173;-83
2021/09/12 03:28:59;;;;;;;8.37;7.43;;;12.50;99.90;;;;;;4984058;28;20183;-83
2021/09/12 03:31:24;;;;;;;8.63;7.20;;;12.40;99.90;;;;;;4982999;28;20223;-82
2021/09/12 03:33:50;;;;;;;10.23;7.80;;;12.40;99.90;;;;;;4978350;28;20207;-82
2021/09/12 03:36:16;;;;;;;8.40;7.50;;;12.40;99.90;;;;;;4981432;28;20188;-83
2021/09/12 03:38:41;;;;;;;9.43;7.47;;;12.40;99.90;;;;;;4983208;28;20179;-83
2021/09/12 03:41:07;;;;;;;10.97;7.50;;;12.40;99.90;;;;;;4983132;28;20238;-83
2021/09/12 03:43:33;;;;;;;12.50;7.87;;;12.40;99.90;;;;;;4991990;28;20180;-82
2021/09/12 03:45:58;;;;;;;7.90;6.93;;;12.40;99.90;;;;;;4996420;28;20191;-82
2021/09/12 03:48:25;;;;;;;9.30;7.87;;;12.40;99.90;;;;;;4986588;28;20204;-82
2021/09/12 03:50:50;;;;;;;10.33;7.70;;;12.40;99.90;;;;;;4983591;28;20282;-83
2021/09/12 03:53:16;;;;;;;9.53;7.37;;;12.40;99.90;;;;;;4983622;28;20188;-82
2021/09/12 03:55:43;;;;;;;9.60;7.83;;;12.30;99.90;;;;;;4983633;28;20207;-82
2021/09/12 03:58:09;;;;;;;8.27;7.23;;;12.30;99.90;;;;;;4982434;28;20183;-83
2021/09/12 04:00:35;;;;;;;9.50;8.00;;;12.30;99.90;;;;;;4982085;28;20201;-82
2021/09/12 04:03:01;;;;;;;8.20;7.10;;;12.30;99.90;;;;;;4982488;28;20576;-82
2021/09/12 04:05:26;;;;;;;8.13;7.30;;;12.30;99.90;;;;;;4982153;28;20200;-83
2021/09/12 04:07:52;;;;;;;10.17;7.30;;;12.30;99.90;;;;;;4980433;28;20180;-83
2021/09/12 04:10:18;;;;;;;8.87;6.67;;;12.20;99.90;;;;;;4980614;28;20211;-82
2021/09/12 04:12:44;;;;;;;8.03;6.63;;;12.20;99.90;;;;;;4982398;28;20176;-82
2021/09/12 04:15:10;;;;;;;7.90;6.73;;;12.10;99.90;;;;;;4979949;28;20206;-82
2021/09/12 04:17:36;;;;;;;9.03;6.77;;;12.10;99.90;;;;;;4982006;28;20234;-82
2021/09/12 04:20:04;;;;;;;8.40;6.50;;;12.10;99.90;;;;;;4980369;28;20231;-82
2021/09/12 04:22:29;;;;;;;9.40;6.57;;;12.10;99.90;;;;;;4981260;28;20187;-83
2021/09/12 04:24:55;;;;;;;7.60;6.07;;;12.20;99.90;;;;;;4982513;28;20180;-82
2021/09/12 04:27:21;;;;;;;8.27;7.13;;;12.20;99.90;;;;;;4982342;28;20184;-82
2021/09/12 04:29:46;;;;;;;7.43;6.07;;;12.10;99.90;;;;;;4982302;28;20176;-82
2021/09/12 04:32:12;;;;;;;7.93;6.70;;;12.10;99.90;;;;;;4980452;28;20326;-82
2021/09/12 04:34:38;;;;;;;7.33;6.53;;;12.10;99.90;;;;;;4980525;28;20223;-82
2021/09/12 04:37:04;;;;;;;10.30;6.60;;;12.10;99.90;;;;;;4980581;28;20187;-83
2021/09/12 04:39:30;;;;;;;7.50;6.40;;;12.20;99.90;;;;;;4982118;28;20210;-83
2021/09/12 04:41:55;;;;;;;8.30;6.97;;;12.20;99.90;;;;;;4981532;28;20194;-82
2021/09/12 04:44:21;;;;;;;7.37;5.80;;;12.30;99.90;;;;;;4982259;28;20184;-82
2021/09/12 04:46:46;;;;;;;7.20;6.10;;;12.30;99.90;;;;;;4981111;28;20638;-83
2021/09/12 04:49:12;;;;;;;7.60;6.43;;;12.30;99.90;;;;;;4982398;28;20545;-83
2021/09/12 04:51:38;;;;;;;7.30;6.20;;;12.30;99.90;;;;;;4983104;28;20204;-83
2021/09/12 04:54:03;;;;;;;7.50;6.10;;;12.30;99.90;;;;;;4982763;28;20207;-82
2021/09/12 04:56:29;;;;;;;9.57;5.93;;;12.40;99.90;;;;;;4983015;28;20177;-82
2021/09/12 04:58:55;;;;;;;8.13;5.87;;;12.40;99.90;;;;;;4981840;28;20187;-83
2021/09/12 05:01:21;;;;;;;8.17;6.80;;;12.50;99.90;;;;;;4984613;28;20241;-83
2021/09/12 05:03:46;;;;;;;7.27;5.70;;;12.50;99.90;;;;;;4986207;28;20187;-83
2021/09/12 05:06:12;;;;;;;7.07;5.73;;;12.60;99.90;;;;;;4986630;28;20179;-83
2021/09/12 05:08:38;;;;;;;7.57;5.70;;;12.60;99.90;;;;;;4993268;28;20386;-82
2021/09/12 05:11:03;;;;;;;7.57;5.50;;;12.70;99.90;;;;;;4998632;28;20199;-82
2021/09/12 05:13:30;;;;;;;6.37;5.57;;;12.70;99.90;;;;;;4997631;28;20180;-82
2021/09/12 05:15:56;;;;;;;6.97;6.10;;;12.70;99.90;;;;;;4998347;28;20223;-82
2021/09/12 05:18:21;;;;;;;8.07;5.33;;;12.70;99.90;;;;;;4998720;28;20211;-82
2021/09/12 05:20:48;;;;;;;5.73;5.00;;;12.70;99.90;;;;;;4991809;28;20599;-82
2021/09/12 05:23:14;;;;;;;7.50;5.70;;;12.70;99.90;;;;;;4983318;28;20173;-82
2021/09/12 05:25:40;;;;;;;7.17;5.63;;;12.70;99.90;;;;;;4983772;28;20177;-82
2021/09/12 05:28:05;;;;;;;7.23;5.00;;;12.80;99.90;;;;;;4982294;28;20623;-82
2021/09/12 05:30:31;;;;;;;5.27;4.77;;;12.80;99.90;;;;;;4981878;28;20283;-82
2021/09/12 05:32:57;;;;;;;7.60;5.20;;;12.80;99.90;;;;;;4980345;28;20191;-82
2021/09/12 05:35:22;;;;;;;6.00;5.40;;;12.80;99.90;;;;;;4979176;28;20243;-82
2021/09/12 05:37:48;;;;;;;5.87;5.13;;;12.90;99.90;;;;;;4977810;28;20180;-82
2021/09/12 05:40:15;;;;;;;5.33;4.83;;;12.90;99.90;;;;;;4977754;28;20235;-82
2021/09/12 05:42:40;;;;;;;6.70;4.80;;;13.00;99.90;;;;;;4977545;28;20220;-82
2021/09/12 05:45:08;;;;;;;5.27;4.53;;;13.00;99.90;;;;;;4981830;28;20192;-83
2021/09/12 05:47:34;;;;;;;6.00;5.40;;;13.10;99.90;;;;;;4985670;28;20176;-82
2021/09/12 05:49:59;;;;;;;6.23;5.07;;;13.20;99.90;;;;;;4984832;28;20192;-83
2021/09/12 05:52:25;;;;;;;5.90;5.13;;;13.20;99.90;;;;;;4986741;28;20177;-82
2021/09/12 05:54:51;;;;;;;6.73;4.57;;;13.20;99.90;;;;;;4984612;28;20645;-83
2021/09/12 05:57:17;;;;;;;5.90;4.87;;;13.20;99.90;;;;;;4986167;28;20172;-82
2021/09/12 05:59:43;;;;;;;6.47;5.13;;;;;;;;;;4985916;28;20175;-82
2021/09/12 06:02:09;;;;;;;7.00;5.43;;;13.40;99.90;;;;;;4985130;28;20219;-82
2021/09/12 06:04:34;;;;;;;7.27;5.37;;;13.50;99.90;;;;;;4986828;28;20184;-82
2021/09/12 06:07:00;;;;;;;6.97;5.00;;;13.60;99.90;;;;;;4985310;28;20180;-83
2021/09/12 06:09:26;;;;;;;8.50;5.53;;;13.60;99.90;;;;;;4984992;28;20190;-83
2021/09/12 06:11:52;;;;;;;6.97;5.37;;;13.70;99.90;;;;;;4982859;28;20212;-83
2021/09/12 06:14:19;;;;;;;6.93;5.47;;;13.70;99.90;;;;;;4984776;28;20200;-83
2021/09/12 06:16:45;;;;;;;10.07;6.63;;;13.80;99.90;;;;;;4982038;28;20180;-82
2021/09/12 06:19:11;;;;;;;11.93;6.90;;;13.70;99.90;;;;;;4981933;28;20180;-81
2021/09/12 06:21:37;;;;;;;9.77;6.93;;;13.80;99.90;;;;;;4983367;28;20220;-81
2021/09/12 06:24:03;;;;;;;12.20;7.10;;;13.80;99.90;;;;;;4981701;28;20184;-82
2021/09/12 06:26:29;;;;;;;11.27;7.67;;;13.90;99.90;;;;;;4984525;28;20184;-82
2021/09/12 06:28:54;;;;;;;18.40;8.77;;;13.90;99.90;;;;;;4982650;28;20194;-82
2021/09/12 06:31:21;;;;;;;21.57;10.87;;;13.90;99.90;;;;;;4984876;28;20655;-82
2021/09/12 06:33:47;;;;;;;20.80;10.63;;;14.00;99.90;;;;;;4984068;28;20187;-82
2021/09/12 06:36:13;;;;;;;18.77;9.43;;;14.00;99.90;;;;;;4983063;28;20192;-82
2021/09/12 06:38:39;;;;;;;18.83;9.63;;;14.00;99.90;;;;;;4985822;28;20181;-82
2021/09/12 06:41:04;;;;;;;24.67;11.67;;;14.00;99.90;;;;;;4986358;28;20202;-82
2021/09/12 06:43:30;;;;;;;21.33;9.93;;;14.00;99.90;;;;;;4992372;28;20180;-82
2021/09/12 06:45:56;;;;;;;20.37;11.60;;;14.00;99.90;;;;;;4995941;28;20196;-82
2021/09/12 06:48:22;;;;;;;24.37;10.47;;;14.10;99.90;;;;;;4993175;28;20191;-82
2021/09/12 06:50:47;;;;;;;21.80;9.93;;;14.10;99.90;;;;;;4983800;28;20615;-82
2021/09/12 06:53:13;;;;;;;24.63;11.00;;;14.10;99.90;;;;;;4982405;28;20180;-82
2021/09/12 06:55:39;;;;;;;27.60;11.10;;;14.20;99.90;;;;;;4983694;28;20204;-82
2021/09/12 06:58:05;;;;;;;27.90;12.67;;;14.20;99.90;;;;;;4982235;28;20187;-82
2021/09/12 07:00:34;;;;;;;26.93;12.20;;;14.20;99.90;;;;;;4983537;28;20196;-82
2021/09/12 07:03:00;;;;;;;26.10;12.77;;;14.20;99.90;;;;;;4982155;28;20182;-82
2021/09/12 07:05:26;;;;;;;33.93;13.77;;;14.20;99.90;;;;;;4982098;28;20279;-82
2021/09/12 07:07:52;;;;;;;25.57;12.77;;;14.20;99.90;;;;;;4984020;28;20181;-82
2021/09/12 07:10:18;;;;;;;26.00;13.20;;;14.30;99.90;;;;;;4983181;28;20204;-82
2021/09/12 07:12:45;;;;;;;24.57;12.77;;;14.50;99.90;;;;;;4982326;28;20180;-82
2021/09/12 07:15:11;;;;;;;24.40;12.93;;;14.60;99.90;;;;;;4983616;28;20204;-82
2021/09/12 07:17:37;;;;;;;26.10;13.90;;;14.70;99.90;;;;;;4985479;28;20544;-82
2021/09/12 07:20:03;;;;;;;28.97;13.57;;;14.80;99.90;;;;;;4986265;28;20262;-82
2021/09/12 07:22:29;;;;;;;28.97;13.70;;;14.90;99.90;;;;;;4983435;28;20188;-82
2021/09/12 07:24:55;;;;;;;27.17;14.10;;;15.00;99.90;;;;;;4982673;28;20192;-82
2021/09/12 07:27:20;;;;;;;28.67;13.73;;;15.00;99.90;;;;;;4983020;28;20176;-82
2021/09/12 07:29:46;;;;;;;31.10;14.00;;;15.20;99.90;;;;;;4982674;28;20242;-82
2021/09/12 07:32:12;;;;;;;25.73;14.20;;;15.10;99.90;;;;;;4979307;28;20192;-82
2021/09/12 07:34:37;;;;;;;28.37;14.77;;;15.30;99.90;;;;;;4978032;28;20222;-82
2021/09/12 07:37:03;;;;;;;23.47;12.77;;;15.30;99.90;;;;;;4979982;28;20168;-82
2021/09/12 07:39:29;;;;;;;23.83;13.83;;;15.40;99.90;;;;;;4980858;28;20207;-82
2021/09/12 07:41:55;;;;;;;23.43;13.63;;;15.60;99.90;;;;;;4980793;28;20196;-83
2021/09/12 07:44:21;;;;;;;25.30;13.37;;;15.60;99.90;;;;;;4980358;28;20661;-82
2021/09/12 07:46:46;;;;;;;23.30;12.80;;;15.80;99.90;;;;;;4979754;28;20180;-82
2021/09/12 07:49:12;;;;;;;26.03;14.43;;;15.90;99.90;;;;;;4977979;28;20552;-82
2021/09/12 07:51:38;;;;;;;25.63;13.27;;;16.10;99.90;;;;;;4979050;28;20224;-82
2021/09/12 07:54:03;;;;;;;28.97;14.40;;;16.30;99.90;;;;;;4977389;28;20208;-82
2021/09/12 07:56:29;;;;;;;22.90;13.10;;;16.30;99.90;;;;;;4979115;28;20180;-82
2021/09/12 07:58:55;;;;;;;22.47;13.00;;;16.30;99.90;;;;;;4978843;28;20183;-81
2021/09/12 08:01:20;;;;;;;22.20;13.73;;;16.40;99.90;;;;;;4977147;28;20200;-82
2021/09/12 08:03:46;;;;;;;21.90;13.27;;;16.40;99.90;;;;;;4978730;28;20188;-81
2021/09/12 08:06:11;;;;;;;23.80;13.40;;;16.50;99.90;;;;;;4977431;28;20180;-81
2021/09/12 08:08:37;;;;;;;18.17;13.03;;;16.60;99.90;;;;;;4977961;28;20215;-81
2021/09/12 08:11:03;;;;;;;20.37;13.10;;;16.60;99.90;;;;;;4978293;28;20251;-81
2021/09/12 08:13:28;;;;;;;20.03;13.30;;;16.70;99.90;;;;;;4977259;28;20188;-81
2021/09/12 08:15:54;;;;;;;19.00;13.30;;;16.70;99.90;;;;;;4977670;28;20208;-81
2021/09/12 08:18:22;;;;;;;20.90;13.97;;;16.80;99.90;;;;;;4995276;28;20175;-81
2021/09/12 08:20:47;;;;;;;18.97;13.13;;;16.90;99.90;;;;;;4993830;28;20270;-82
2021/09/12 08:23:13;;;;;;;17.93;13.20;;;16.90;99.90;;;;;;4979918;28;20638;-82
2021/09/12 08:25:39;;;;;;;16.13;12.00;;;17.00;99.90;;;;;;4982054;28;20180;-81
2021/09/12 08:28:05;;;;;;;19.77;13.83;;;17.00;99.90;;;;;;4981654;28;20183;-82
2021/09/12 08:30:31;;;;;;;17.10;12.67;;;17.10;99.90;;;;;;4979017;28;20203;-82
2021/09/12 08:32:57;;;;;;;20.40;13.70;;;17.30;99.90;;;;;;4979505;28;20184;-82
2021/09/12 08:35:23;;;;;;;19.47;13.07;;;17.50;99.90;;;;;;4982466;28;20623;-81
2021/09/12 08:37:48;;;;;;;17.80;13.53;;;17.70;99.90;;;;;;4983473;28;20176;-81
2021/09/12 08:40:14;;;;;;;18.07;13.30;;;17.60;99.90;;;;;;4984869;28;20196;-81
2021/09/12 08:42:42;;;;;;;21.07;13.93;;;17.70;99.90;;;;;;4985308;28;20237;-81
2021/09/12 08:45:09;;;;;;;18.90;13.70;;;17.90;99.90;;;;;;4985257;28;20172;-81
2021/09/12 08:47:39;;;;;;;17.67;12.50;;;18.00;99.90;;;;;;4983468;28;20217;-83
2021/09/12 08:50:05;;;;;;;18.77;12.77;;;18.20;99.90;;;;;;4984281;28;20275;-82
2021/09/12 08:52:31;;;;;;;15.37;12.47;;;18.70;99.90;;;;;;4983116;28;20234;-82
2021/09/12 08:54:57;;;;;;;18.57;13.03;;;19.20;99.90;;;;;;4984199;28;20275;-82
2021/09/12 08:57:22;;;;;;;17.60;13.13;;;19.60;99.90;;;;;;4983969;28;20184;-81
2021/09/12 08:59:50;;;;;;;15.20;12.70;;;19.70;99.90;;;;;;4985245;28;20320;-82
2021/09/12 09:02:23;;;;;;;14.93;12.33;;;19.50;99.90;;;;;;4984183;28;20176;-82
2021/09/12 09:04:48;;;;;;;14.70;11.60;;;19.40;99.90;;;;;;4984074;28;20258;-83
2021/09/12 09:07:14;;;;;;;13.37;10.73;;;20.00;99.90;;;;;;4983952;28;20219;-82
2021/09/12 09:09:45;;;;;;;13.90;11.63;;;20.90;99.90;;;;;;4984577;28;20208;-83
2021/09/12 09:12:32;;;;;;;15.93;10.97;;;21.50;99.90;;;;;;4982945;28;20267;-83
2021/09/12 09:15:13;;;;;;;13.63;10.63;;;21.30;99.90;;;;;;4983388;28;20610;-83
2021/09/12 09:17:42;;;;;;;14.00;11.07;;;21.00;99.90;;;;;;4986537;28;20654;-82
2021/09/12 09:20:10;;;;;;;15.50;11.23;;;21.10;99.90;;;;;;4985970;28;20216;-83
2021/09/12 09:22:38;;;;;;;14.23;10.70;;;21.30;99.90;;;;;;4982957;28;20188;-82
2021/09/12 09:25:09;;;;;;;11.90;10.13;;;21.90;99.90;;;;;;4983599;28;20180;-83
2021/09/12 09:27:51;;;;;;;11.50;9.73;;;22.00;99.90;;;;;;4982516;28;20185;-82
2021/09/12 09:30:18;;;;;;;12.43;9.87;;;21.40;99.90;;;;;;4982469;28;20228;-83
2021/09/12 09:32:44;;;;;;;11.30;9.90;;;20.90;99.90;;;;;;4984575;28;20169;-83
2021/09/12 09:35:23;;;;;;;12.07;9.90;;;20.70;99.90;;;;;;4983417;28;20366;-82
2021/09/12 09:37:50;;;;;;;13.00;10.90;;;20.50;99.90;;;;;;4983835;28;20180;-82
2021/09/12 09:40:15;;;;;;;12.10;9.80;;;20.50;99.90;;;;;;4983960;28;20287;-83
2021/09/12 09:42:44;;;;;;;11.67;9.47;;;20.80;99.90;;;;;;4990140;28;20177;-81
2021/09/12 09:45:21;;;;;;;11.03;9.83;;;21.00;99.90;;;;;;4995130;28;20718;-80
2021/09/12 09:47:49;;;;;;;9.93;8.93;;;21.20;99.90;;;;;;4995712;28;20180;-81
2021/09/12 09:50:20;;;;;;;11.93;9.07;;;21.30;99.90;;;;;;4982637;28;20282;-80
2021/09/12 09:52:52;;;;;;;11.77;8.90;;;21.40;99.90;;;;;;4980408;28;20187;-81
2021/09/12 09:55:19;;;;;;;8.63;7.80;;;21.40;99.90;;;;;;4980958;28;20200;-81
2021/09/12 09:57:50;;;;;;;8.80;7.23;;;21.50;99.90;;;;;;4981313;28;20232;-81
2021/09/12 10:00:17;;;;;;;8.97;7.43;;;21.60;99.90;;;;;;4980877;28;20197;-81
2021/09/12 10:02:44;;;;;;;8.57;7.27;;;21.80;99.90;;;;;;4981544;28;20642;-81
2021/09/12 10:05:11;;;;;;;8.33;6.97;;;22.00;99.90;;;;;;4981054;28;20573;-81
2021/09/12 10:07:39;;;;;;;7.10;6.40;;;21.90;99.90;;;;;;4981051;28;20215;-82
2021/09/12 10:10:08;;;;;;;7.37;6.40;;;21.70;99.90;;;;;;4980651;28;20204;-81
2021/09/12 10:12:43;;;;;;;7.90;7.10;;;21.70;99.90;;;;;;4981672;28;20176;-80
2021/09/12 10:15:17;;;;;;;8.70;7.00;;;21.80;99.90;;;;;;4979594;28;20238;-81
2021/09/12 10:17:44;;;;;;;10.90;7.83;;;22.10;99.90;;;;;;4982324;28;20160;-81
2021/09/12 10:20:15;;;;;;;8.47;6.93;;;22.40;99.90;;;;;;4981710;28;20193;-81
2021/09/12 10:22:56;;;;;;;9.40;7.07;;;22.60;99.90;;;;;;4981958;28;20172;-81
2021/09/12 10:25:44;;;;;;;9.00;6.90;;;22.90;99.90;;;;;;4980978;28;20174;-81
2021/09/12 10:28:10;;;;;;;8.27;6.60;;;23.00;99.90;;;;;;4982755;28;20169;-81
2021/09/12 10:30:37;;;;;;;7.20;5.70;;;23.20;99.90;;;;;;4987040;28;20704;-80
2021/09/12 10:33:09;;;;;;;5.53;5.03;;;23.10;99.90;;;;;;4981393;28;20205;-79
2021/09/12 10:35:56;;;;;;;9.10;5.50;;;22.90;99.90;;;;;;4980540;28;20210;-82
2021/09/12 10:38:43;;;;;;;10.37;5.97;;;22.70;99.90;;;;;;4980683;28;20190;-82
2021/09/12 10:41:10;;;;;;;7.17;6.47;;;22.40;99.90;;;;;;4980577;28;20704;-81
2021/09/12 10:43:41;;;;;;;9.17;5.87;;;22.20;99.90;;;;;;4981946;28;20182;-81
2021/09/12 10:46:09;;;;;;;6.47;5.83;;;22.00;99.90;;;;;;4982739;28;20277;-81
2021/09/12 10:49:02;;;;;;;7.03;6.07;;;21.90;99.90;;;;;;4982325;28;20182;-80
2021/09/12 10:51:30;;;;;;;6.60;5.73;;;21.60;99.90;;;;;;4981708;28;20197;-80
2021/09/12 10:53:59;;;;;;;7.20;6.00;;;21.30;99.90;;;;;;4981081;28;20191;-81
2021/09/12 10:56:24;;;;;;;6.60;6.00;;;21.20;99.90;;;;;;4983169;28;20675;-81
2021/09/12 10:58:53;;;;;;;6.63;5.73;;;21.30;99.90;;;;;;4982578;28;20173;-82
2021/09/12 11:01:39;;;;;;;6.27;5.67;;;21.30;99.90;;;;;;4981254;28;20200;-81
2021/09/12 11:04:05;;;;;;;6.73;5.57;;;21.10;99.90;;;;;;4982143;28;20242;-82
2021/09/12 11:06:36;;;;;;;8.37;5.60;;;21.00;99.90;;;;;;4982817;28;20206;-82
2021/09/12 11:09:05;;;;;;;5.97;5.37;;;21.00;99.90;;;;;;4993609;28;20204;-80
2021/09/12 11:11:30;;;;;;;7.87;5.53;;;21.70;99.90;;;;;;4993092;28;20192;-81
2021/09/12 11:13:58;;;;;;;5.90;5.30;;;22.40;99.90;;;;;;4978859;28;20631;-81
2021/09/12 11:16:25;;;;;;;5.20;4.57;;;23.30;99.90;;;;;;4979474;28;20175;-83
2021/09/12 11:18:55;;;;;;;6.47;4.27;;;24.40;99.90;;;;;;4978916;28;20179;-81
2021/09/12 11:21:33;;;;;;;3.90;3.50;;;25.30;99.90;;;;;;4978630;28;20198;-81
2021/09/12 11:24:05;;;;;;;5.10;3.70;;;26.10;99.90;;;;;;4977885;28;20651;-81
2021/09/12 11:26:42;;;;;;;3.93;3.50;;;27.20;99.90;;;;;;4979940;28;20229;-81
2021/09/12 11:29:15;;;;;;;4.10;3.70;;;26.50;99.90;;;;;;4980210;28;20168;-81
2021/09/12 11:32:09;;;;;;;4.47;3.80;;;26.30;99.90;;;;;;4980019;28;20603;-81
2021/09/12 11:34:37;;;;;;;4.43;4.03;;;25.30;99.90;;;;;;4978234;28;20637;-82
2021/09/12 11:37:22;;;;;;;4.10;3.77;;;25.20;99.90;;;;;;4978427;28;20183;-82
2021/09/12 11:39:55;;;;;;;5.53;4.43;;;26.60;99.90;;;;;;4979307;28;20164;-83
2021/09/12 11:42:21;;;;;;;5.93;4.00;;;26.60;99.90;;;;;;4977906;28;20234;-82
2021/09/12 11:44:51;;;;;;;5.20;4.30;;;27.10;99.90;;;;;;4978474;28;20187;-83
2021/09/12 11:47:19;;;;;;;4.23;3.83;;;26.30;99.90;;;;;;4980079;28;20173;-83
2021/09/12 11:49:59;;;;;;;5.40;4.23;;;24.70;99.90;;;;;;4978961;28;20564;-81
2021/09/12 11:52:35;;;;;;;5.73;4.93;;;24.70;99.90;;;;;;4978635;28;20156;-82
2021/09/12 11:55:00;;;;;;;7.57;4.50;;;23.60;99.90;;;;;;4979756;28;20200;-82
2021/09/12 11:57:26;;;;;;;6.27;4.33;;;23.30;99.90;;;;;;4979066;28;20180;-81
2021/09/12 11:59:52;;;;;;;5.13;4.30;;;22.80;99.90;;;;;;4977292;28;20238;-81
2021/09/12 12:02:22;;;;;;;5.00;4.13;;;22.80;99.90;;;;;;4979553;28;20183;-81
2021/09/12 12:04:49;;;;;;;5.20;4.10;;;22.60;99.90;;;;;;4981605;28;20174;-81
2021/09/12 12:07:15;;;;;;;4.87;4.33;;;23.10;99.90;;;;;;4979097;28;20218;-81
2021/09/12 12:09:49;;;;;;;6.20;3.93;;;23.40;99.90;;;;;;4978019;28;20684;-80
2021/09/12 12:12:19;;;;;;;4.20;3.80;;;23.80;99.90;;;;;;4980328;28;20237;-79
2021/09/12 12:14:48;;;;;;;4.43;4.03;;;24.20;99.90;;;;;;4980568;28;20209;-81
2021/09/12 12:17:19;;;;;;;4.80;4.17;;;25.10;99.90;;;;;;4979368;28;20184;-80
2021/09/12 12:19:45;;;;;;;5.07;3.60;;;25.90;99.90;;;;;;4981138;28;20176;-81
2021/09/12 12:22:11;;;;;;;6.00;3.53;;;27.70;99.90;;;;;;4980861;28;20258;-81
2021/09/12 12:24:42;;;;;;;6.03;3.80;;;29.10;99.90;;;;;;4980892;28;20192;-82
2021/09/12 12:27:10;;;;;;;3.73;3.37;;;29.60;99.90;;;;;;4980593;28;20312;-82
2021/09/12 12:29:40;;;;;;;3.30;3.00;;;29.70;99.90;;;;;;4980240;28;20184;-83
2021/09/12 12:32:07;;;;;;;5.27;2.90;;;29.50;99.90;;;;;;4981323;28;20208;-83
2021/09/12 12:34:51;;;;;;;3.87;3.07;;;29.10;99.90;;;;;;4990793;28;20236;-82
2021/09/12 12:37:27;;;;;;;3.70;3.30;;;29.50;99.90;;;;;;4994733;28;20510;-81
2021/09/12 12:40:01;;;;;;;3.30;3.00;;;29.90;99.90;;;;;;4981114;28;20174;-82
2021/09/12 12:42:41;;;;;;;3.47;3.17;;;29.70;99.90;;;;;;4980747;28;20177;-83
2021/09/12 12:45:31;;;;;;;2.93;2.53;;;28.20;99.90;;;;;;4980279;28;20173;-81